Meteo Giornale » Osservazioni meteo Egitto » Cairo

ore: 22:30 - Osservazioni Meteo Cairo
Lat. 30° 8' N Lon. 31° 24' E Alt. 64 metri s.l.m.

sereno Africa/Cairo

24 °C

Sereno

Temp. 24 Ore

22 °C

40 °C

Nord

20.3 Km/h

Dew point 15 °C

Umidità 57 %

Visibilità  10 Km

Il sole sorge alle ore 04:58

Il sole tramonta alle ore 18:42

Data e Ora Cielo e Fenomeni T °C DP °C Um. % Pres. hPa Vis. km Vento km/h
Oggi h: 22:30 sereno Sereno 24 15 57 1009 10 N 20.3
Oggi h: 22:00 sereno Sereno 25 14 50 1009 10 N 24
Oggi h: 21:30 sereno Sereno 25 14 50 1009 10 N/NO 24
Oggi h: 21:00 sereno Sereno 27 12 39 1008 10 N/NO 22.2
Oggi h: 20:30 sereno Sereno 27 11 36 1007 10 N 25.9
Oggi h: 20:00 sereno Sereno 29 10 30 1007 10 N 27.8
Oggi h: 19:30 sereno Sereno 29 11 32 1006 10 N 25.9
Oggi h: 19:00 sereno Sereno 31 10 27 1006 10 N/NE 27.8
Oggi h: 18:30 sereno Sereno 33 11 26 1005 10 N 29.6
Oggi h: 18:00 sereno Sereno 38 1 9 1004 10 N 5.5
Oggi h: 17:30 sereno Sereno 39 3 10 1004 10 S/SO 18.5
Oggi h: 17:00 sereno Sereno 39 3 10 1004 10 S/SO 18.5
Oggi h: 16:30 sereno Sereno 40 -5 5 1005 10 S 7.4
Oggi h: 16:00 sereno Sereno 40 -5 5 1005 10 S 7.4
Oggi h: 15:30 sereno Sereno 39 5 12 1006 10 SO 16.7
Oggi h: 15:00 sereno Sereno 39 5 12 1006 10 SO 16.7
Oggi h: 14:30 sereno Sereno 38 5 13 1006 10 N 3.7
Oggi h: 14:00 sereno Sereno 38 5 13 1006 10 N 3.7
Oggi h: 13:30 sereno Sereno 37 4 12 1007 10 O 9.3
Oggi h: 13:00 sereno Sereno 37 4 12 1007 10 O 9.3
Oggi h: 12:30 sereno Sereno 36 -0 10 1008 10 O 7.4
Oggi h: 12:00 sereno Sereno 36 -0 10 1008 10 O 7.4
Oggi h: 11:30 sereno Sereno 36 -0 10 1008 10 O 7.4
Oggi h: 11:00 sereno Sereno 34 5 16 1008 10 N 5.5
Oggi h: 10:30 sereno Sereno 33 6 18 1008 10 N 5.5
Oggi h: 10:00 sereno Sereno 31 5 19 1009 10 N 5.5
Oggi h: 09:30 sereno Sereno 32 7 21 1009 10 N 5.5
Oggi h: 09:00 sereno Sereno 32 6 19 1008 10 N 5.5
Oggi h: 08:30 sereno Sereno 32 6 19 1008 10 N 5.5
Oggi h: 08:00 sereno Sereno 28 4 21 1008 10 N 5.5
Oggi h: 07:30 sereno Sereno 28 5 23 1008 10 N 5.5
Oggi h: 07:00 sereno Sereno 25 4 25 1008 10 N 5.5
Oggi h: 06:30 sereno Sereno 24 3 25 1008 10 N 5.5
Oggi h: 06:00 sereno Sereno 22 3 28 1008 10 N 3.7
Oggi h: 05:30 sereno Sereno 22 2 26 1008 10 N 5.5
Oggi h: 05:00 sereno Sereno 22 2 26 1008 10 N/NE 7.4
Oggi h: 04:30 sereno Sereno 22 2 26 1008 10 N 5.5
Oggi h: 04:00 sereno Sereno 23 2 25 1008 10 N 5.5
Oggi h: 03:30 sereno Sereno 22 2 26 1008 10 N 3.7
Oggi h: 03:00 sereno Sereno 24 3 25 1008 10 E 13
Oggi h: 02:30 sereno Sereno 24 4 27 1008 10 E 18.5
Oggi h: 02:00 sereno Sereno 23 8 38 1008 10 E 16.7
Oggi h: 01:30 sereno Sereno 22 13 56 1009 10 E/NE 14.8
Oggi h: 01:00 sereno Sereno 23 13 53 1010 10 E/NE 13
Oggi h: 00:30 sereno Sereno 23 13 53 1010 10 E/NE 18.5
Oggi h: 00:00 sereno Sereno 23 12 49 1011 10 E/NE 14.8